Time;durP1;ratioP1;P1;durP2;ratioP2;P2;SDS_P1;SDS_P2;PMS_P1;PMS_P2;Temp;Humidity;BMP_temperature;BMP_pressure;BME280_temperature;BME280_humidity;BME280_pressure;Samples;Min_cycle;Max_cycle;Signal;HPM_P1;HPM_P2
2023/09/27 00:00:33;;;;;;;24.05;21.45;;;14.10;99.90;;;;;;5072815;28;20028;-65
2023/09/27 00:02:58;;;;;;;22.15;19.75;;;14.20;99.90;;;;;;5040001;28;20051;-64
2023/09/27 00:05:25;;;;;;;23.30;20.90;;;14.10;99.90;;;;;;5072997;28;20504;-64
2023/09/27 00:07:53;;;;;;;24.42;21.55;;;14.20;99.90;;;;;;5055867;28;20057;-64
2023/09/27 00:10:20;;;;;;;24.58;21.98;;;14.20;99.90;;;;;;5036759;28;20047;-65
2023/09/27 00:12:46;;;;;;;22.92;19.80;;;14.20;99.90;;;;;;5056120;28;20032;-65
2023/09/27 00:15:12;;;;;;;27.63;24.65;;;14.20;99.90;;;;;;5056284;28;20507;-71
2023/09/27 00:17:39;;;;;;;23.33;20.85;;;14.20;99.90;;;;;;5073010;28;20047;-70
2023/09/27 00:20:09;;;;;;;24.52;21.95;;;14.20;99.90;;;;;;5073088;28;20125;-70
2023/09/27 00:22:35;;;;;;;25.23;22.55;;;14.10;99.90;;;;;;5056149;28;20055;-70
2023/09/27 00:25:01;;;;;;;25.00;22.27;;;14.10;99.90;;;;;;5072723;28;20041;-70
2023/09/27 00:27:27;;;;;;;25.88;23.08;;;14.10;99.90;;;;;;5056047;28;20074;-70
2023/09/27 00:29:53;;;;;;;25.88;23.27;;;14.10;99.90;;;;;;5073956;28;20036;-70
2023/09/27 00:32:19;;;;;;;23.85;21.30;;;14.10;99.90;;;;;;5073940;28;20112;-70
2023/09/27 00:34:44;;;;;;;23.60;21.10;;;14.00;99.90;;;;;;5039766;28;20045;-70
2023/09/27 00:37:10;;;;;;;26.35;23.55;;;14.00;99.90;;;;;;5039472;28;20036;-71
2023/09/27 00:39:36;;;;;;;22.33;19.65;;;14.00;99.90;;;;;;5072606;28;20519;-71
2023/09/27 00:42:02;;;;;;;28.83;25.00;;;14.00;99.90;;;;;;5072784;28;20442;-70
2023/09/27 00:44:28;;;;;;;29.88;26.67;;;14.00;99.90;;;;;;5039551;28;20130;-71
2023/09/27 00:46:54;;;;;;;28.52;25.60;;;14.00;99.90;;;;;;5072704;28;20048;-71
2023/09/27 00:49:20;;;;;;;30.13;26.98;;;14.00;99.90;;;;;;5072284;28;20036;-70
2023/09/27 00:51:46;;;;;;;28.67;25.83;;;14.00;99.90;;;;;;5074007;28;20032;-71
2023/09/27 00:54:12;;;;;;;28.33;25.42;;;14.00;99.90;;;;;;5072622;28;20384;-70
2023/09/27 00:56:39;;;;;;;27.38;24.48;;;14.00;99.90;;;;;;5072840;28;20036;-69
2023/09/27 00:59:07;;;;;;;29.55;26.38;;;14.00;99.90;;;;;;5072502;28;20128;-70
2023/09/27 01:01:33;;;;;;;27.98;25.15;;;14.00;99.90;;;;;;5072094;28;20136;-69
2023/09/27 01:03:59;;;;;;;21.38;18.25;;;14.00;99.90;;;;;;5055643;28;20119;-70
2023/09/27 01:06:25;;;;;;;30.10;27.02;;;14.00;99.90;;;;;;5072023;28;20152;-70
2023/09/27 01:08:51;;;;;;;26.48;23.85;;;14.00;99.90;;;;;;5055871;28;20043;-70
2023/09/27 01:11:18;;;;;;;29.30;26.30;;;13.90;99.90;;;;;;5055395;28;20477;-70
2023/09/27 01:13:44;;;;;;;31.10;26.58;;;14.00;99.90;;;;;;5022804;28;20469;-70
2023/09/27 01:16:10;;;;;;;29.27;26.17;;;13.90;99.90;;;;;;5055669;28;20468;-71
2023/09/27 01:18:37;;;;;;;31.63;27.83;;;13.90;99.90;;;;;;5072292;28;20104;-70
2023/09/27 01:21:03;;;;;;;33.60;29.95;;;13.90;99.90;;;;;;5072117;28;20051;-69
2023/09/27 01:23:29;;;;;;;27.08;24.27;;;13.90;99.90;;;;;;5059247;28;20516;-69
2023/09/27 01:25:59;;;;;;;35.47;31.67;;;13.90;99.90;;;;;;5059426;28;20082;-71
2023/09/27 01:28:26;;;;;;;26.77;24.08;;;13.90;99.90;;;;;;5075854;28;20072;-70
2023/09/27 01:30:51;;;;;;;29.67;26.48;;;13.80;99.90;;;;;;5075862;28;20044;-71
2023/09/27 01:33:17;;;;;;;28.33;25.27;;;13.80;99.90;;;;;;5077216;28;20416;-70
2023/09/27 01:35:44;;;;;;;32.53;29.05;;;13.80;99.90;;;;;;5076254;28;20044;-71
2023/09/27 01:38:11;;;;;;;26.23;23.55;;;13.80;99.90;;;;;;5075753;28;20093;-70
2023/09/27 01:40:42;;;;;;;34.78;31.17;;;13.80;99.90;;;;;;5076943;28;20101;-71
2023/09/27 01:43:08;;;;;;;27.08;24.23;;;13.80;99.90;;;;;;5075713;28;20119;-71
2023/09/27 01:45:34;;;;;;;31.30;27.98;;;13.80;99.90;;;;;;5075846;28;20044;-71
2023/09/27 01:48:01;;;;;;;30.10;27.05;;;13.80;99.90;;;;;;5076094;28;20528;-71
2023/09/27 01:50:28;;;;;;;30.40;27.20;;;13.80;99.90;;;;;;5075703;28;20040;-70
2023/09/27 01:52:56;;;;;;;37.10;33.17;;;13.80;99.90;;;;;;5075649;28;20051;-69
2023/09/27 01:55:25;;;;;;;35.63;31.73;;;13.70;99.90;;;;;;5075882;28;20484;-71
2023/09/27 01:57:52;;;;;;;30.20;27.08;;;13.70;99.90;;;;;;5075377;28;20040;-71
2023/09/27 02:00:19;;;;;;;27.30;24.40;;;13.70;99.90;;;;;;5075721;28;20076;-71
2023/09/27 02:02:48;;;;;;;32.72;29.35;;;13.70;99.90;;;;;;5059079;28;20404;-71
2023/09/27 02:05:14;;;;;;;33.60;30.30;;;13.70;99.90;;;;;;5075471;28;20040;-70
2023/09/27 02:07:40;;;;;;;33.67;30.17;;;13.70;99.90;;;;;;5058458;28;20052;-71
2023/09/27 02:10:10;;;;;;;31.88;28.58;;;13.70;99.90;;;;;;5075147;28;20048;-71
2023/09/27 02:12:37;;;;;;;30.13;27.02;;;13.70;99.90;;;;;;5042144;28;20094;-69
2023/09/27 02:15:07;;;;;;;34.40;30.73;;;13.70;99.90;;;;;;5075354;28;20051;-69
2023/09/27 02:17:33;;;;;;;36.03;32.33;;;13.70;99.90;;;;;;5076780;28;20036;-69
2023/09/27 02:19:59;;;;;;;35.45;31.88;;;13.80;99.90;;;;;;5075518;28;20036;-70
2023/09/27 02:22:25;;;;;;;34.85;31.38;;;13.80;99.90;;;;;;5077076;28;20040;-71
2023/09/27 02:24:50;;;;;;;34.92;31.23;;;13.80;99.90;;;;;;5075421;28;20055;-70
2023/09/27 02:27:16;;;;;;;34.85;31.20;;;13.80;99.90;;;;;;5075135;28;20134;-70
2023/09/27 02:29:42;;;;;;;31.33;27.73;;;13.80;99.90;;;;;;5075558;28;20036;-70
2023/09/27 02:32:09;;;;;;;31.30;27.95;;;13.80;99.90;;;;;;5076824;28;20043;-70
2023/09/27 02:34:37;;;;;;;37.15;33.38;;;13.80;99.90;;;;;;5057266;28;20079;-65
2023/09/27 02:37:04;;;;;;;33.20;29.80;;;13.80;99.90;;;;;;5074584;28;20040;-65
2023/09/27 02:39:30;;;;;;;36.53;32.33;;;13.80;99.90;;;;;;5057873;28;20048;-65
2023/09/27 02:41:57;;;;;;;33.78;30.30;;;13.80;99.90;;;;;;5057944;28;20040;-64
2023/09/27 02:44:26;;;;;;;33.88;30.30;;;13.80;99.90;;;;;;5057549;28;20049;-64
2023/09/27 02:46:53;;;;;;;33.55;30.08;;;13.80;99.90;;;;;;5075616;28;20493;-65
2023/09/27 02:49:19;;;;;;;31.63;28.33;;;13.80;99.90;;;;;;5074072;28;20037;-65
2023/09/27 02:51:48;;;;;;;31.63;28.35;;;13.80;99.90;;;;;;5057567;28;20041;-65
2023/09/27 02:54:14;;;;;;;36.00;32.30;;;13.80;99.90;;;;;;5074011;28;20040;-66
2023/09/27 02:56:43;;;;;;;30.70;27.50;;;13.80;99.90;;;;;;5057316;28;20045;-66
2023/09/27 02:59:13;;;;;;;35.35;31.55;;;13.70;99.90;;;;;;5075283;28;20040;-65
2023/09/27 03:01:40;;;;;;;37.88;33.88;;;13.70;99.90;;;;;;5057494;28;20036;-66
2023/09/27 03:04:11;;;;;;;35.15;31.38;;;13.70;99.90;;;;;;5073852;28;20036;-65
2023/09/27 03:06:41;;;;;;;33.65;30.20;;;13.70;99.90;;;;;;5073565;28;20060;-65
2023/09/27 03:09:11;;;;;;;35.95;32.25;;;13.70;99.90;;;;;;5040820;28;20036;-65
2023/09/27 03:11:39;;;;;;;30.73;27.48;;;13.70;99.90;;;;;;5057026;28;20120;-65
2023/09/27 03:14:04;;;;;;;38.17;34.35;;;13.80;99.90;;;;;;5073668;28;20036;-64
2023/09/27 03:16:30;;;;;;;32.00;28.55;;;13.70;99.90;;;;;;5057286;28;20480;-66
2023/09/27 03:18:58;;;;;;;37.97;34.17;;;13.70;99.90;;;;;;5057106;28;20037;-63
2023/09/27 03:21:26;;;;;;;37.42;33.10;;;13.70;99.90;;;;;;5073478;28;20123;-65
2023/09/27 03:23:56;;;;;;;39.15;34.97;;;13.60;99.90;;;;;;5074705;28;20036;-65
2023/09/27 03:26:23;;;;;;;35.42;31.80;;;13.60;99.90;;;;;;5073454;28;20044;-65
2023/09/27 03:28:50;;;;;;;32.78;29.38;;;13.60;99.90;;;;;;5073640;28;20047;-65
2023/09/27 03:31:17;;;;;;;39.15;34.92;;;13.60;99.90;;;;;;5073350;28;20068;-64
2023/09/27 03:33:43;;;;;;;33.97;30.58;;;13.60;99.90;;;;;;5074522;28;20041;-66
2023/09/27 03:36:08;;;;;;;37.28;33.58;;;13.70;99.90;;;;;;5073263;28;20045;-66
2023/09/27 03:38:34;;;;;;;37.13;33.28;;;13.60;99.90;;;;;;5057099;28;20040;-68
2023/09/27 03:41:00;;;;;;;34.25;30.73;;;13.60;99.90;;;;;;5056862;28;20044;-66
2023/09/27 03:43:26;;;;;;;39.80;35.80;;;13.60;99.90;;;;;;5073052;28;20109;-67
2023/09/27 03:45:52;;;;;;;37.58;33.65;;;13.60;99.90;;;;;;5072472;28;20040;-66
2023/09/27 03:48:19;;;;;;;35.42;31.73;;;13.60;99.90;;;;;;5073166;28;20045;-67
2023/09/27 03:50:45;;;;;;;38.05;33.80;;;13.60;99.90;;;;;;5056432;28;20048;-67
2023/09/27 03:53:11;;;;;;;37.05;33.15;;;13.60;99.90;;;;;;5072855;28;20062;-67
2023/09/27 03:55:37;;;;;;;35.15;31.55;;;13.60;99.90;;;;;;5056762;28;20076;-69
2023/09/27 03:58:03;;;;;;;40.53;36.33;;;13.60;99.90;;;;;;5074228;28;20510;-66
2023/09/27 04:00:29;;;;;;;39.38;35.15;;;13.60;99.90;;;;;;5056236;28;20048;-66
2023/09/27 04:02:55;;;;;;;38.75;34.85;;;13.60;99.90;;;;;;5072980;28;20522;-66
2023/09/27 04:05:26;;;;;;;34.55;31.02;;;13.50;99.90;;;;;;5089535;28;20041;-65
2023/09/27 04:07:52;;;;;;;37.85;33.85;;;13.50;99.90;;;;;;5072511;28;20052;-65
2023/09/27 04:10:19;;;;;;;33.83;30.27;;;13.50;99.90;;;;;;5056349;28;20050;-65
2023/09/27 04:12:45;;;;;;;36.15;32.42;;;13.50;99.90;;;;;;5056534;28;20044;-65
2023/09/27 04:15:11;;;;;;;36.22;32.33;;;13.50;99.90;;;;;;5072587;28;20037;-65
2023/09/27 04:17:38;;;;;;;34.63;30.98;;;13.50;99.90;;;;;;5072652;28;20082;-66
2023/09/27 04:20:21;;;;;;;35.65;32.13;;;13.50;99.90;;;;;;5055720;28;20043;-64
2023/09/27 04:22:48;;;;;;;35.03;31.15;;;13.50;99.90;;;;;;5072519;28;20047;-65
2023/09/27 04:25:15;;;;;;;36.67;32.88;;;13.50;99.90;;;;;;5072288;28;20041;-65
2023/09/27 04:27:46;;;;;;;37.65;33.65;;;13.50;99.90;;;;;;5072208;28;20041;-64
2023/09/27 04:30:14;;;;;;;36.75;33.13;;;13.50;99.90;;;;;;5055890;28;20481;-65
2023/09/27 04:32:44;;;;;;;38.50;34.58;;;13.40;99.90;;;;;;5055739;28;20036;-65
2023/09/27 04:35:11;;;;;;;36.00;32.35;;;13.50;99.90;;;;;;5072146;28;20040;-68
2023/09/27 04:37:38;;;;;;;36.05;32.47;;;13.50;99.90;;;;;;5072079;28;20044;-65
2023/09/27 04:40:14;;;;;;;38.55;34.38;;;13.40;99.90;;;;;;5073648;28;20068;-68
2023/09/27 04:42:44;;;;;;;36.30;32.45;;;13.50;99.90;;;;;;5072214;28;20489;-66
2023/09/27 04:45:12;;;;;;;36.85;32.95;;;13.40;99.90;;;;;;5073169;28;20051;-68
2023/09/27 04:47:39;;;;;;;39.97;35.83;;;13.50;99.90;;;;;;5072102;28;20489;-68
2023/09/27 04:50:12;;;;;;;40.88;36.58;;;13.40;99.90;;;;;;5055344;28;20047;-66
2023/09/27 04:52:39;;;;;;;38.00;33.97;;;13.40;99.90;;;;;;5072123;28;20041;-67
2023/09/27 04:55:07;;;;;;;34.92;31.42;;;13.50;99.90;;;;;;5055961;28;20044;-67
2023/09/27 04:57:33;;;;;;;39.95;35.65;;;13.40;99.90;;;;;;5071905;28;20041;-70
2023/09/27 04:59:58;;;;;;;42.17;37.72;;;13.40;99.90;;;;;;5073591;28;20388;-71
2023/09/27 05:02:27;;;;;;;41.15;36.83;;;13.40;99.90;;;;;;5055563;28;20370;-71
2023/09/27 05:04:52;;;;;;;37.92;34.15;;;13.40;99.90;;;;;;5055331;28;20090;-69
2023/09/27 05:07:20;;;;;;;34.58;31.13;;;13.40;99.90;;;;;;5055173;28;20052;-69
2023/09/27 05:09:47;;;;;;;36.33;32.45;;;13.30;99.90;;;;;;5071941;28;20051;-70
2023/09/27 05:12:13;;;;;;;39.05;34.95;;;13.30;99.90;;;;;;5055546;28;20540;-70
2023/09/27 05:14:39;;;;;;;36.58;32.83;;;13.30;99.90;;;;;;5055441;28;20070;-70
2023/09/27 05:17:05;;;;;;;37.45;33.60;;;13.30;99.90;;;;;;5055341;28;20048;-70
2023/09/27 05:19:31;;;;;;;36.28;32.50;;;13.30;99.90;;;;;;5071912;28;20051;-69
2023/09/27 05:21:59;;;;;;;37.33;33.50;;;13.30;99.90;;;;;;5055220;28;20048;-71
2023/09/27 05:24:24;;;;;;;39.28;35.22;;;13.30;99.90;;;;;;5072218;28;20051;-69
2023/09/27 05:26:50;;;;;;;39.70;35.70;;;13.20;99.90;;;;;;5055015;28;20048;-70
2023/09/27 05:29:16;;;;;;;40.13;36.20;;;13.20;99.90;;;;;;5072057;28;20066;-70
2023/09/27 05:31:45;;;;;;;46.15;41.42;;;13.30;99.90;;;;;;5072927;28;20089;-70
2023/09/27 05:34:10;;;;;;;46.38;41.60;;;13.20;99.90;;;;;;5055345;28;20032;-69
2023/09/27 05:36:37;;;;;;;42.63;38.17;;;13.20;99.90;;;;;;5072043;28;20492;-71
2023/09/27 05:39:08;;;;;;;41.70;37.45;;;13.20;99.90;;;;;;5055528;28;20079;-69
2023/09/27 05:41:35;;;;;;;43.90;39.50;;;13.30;99.90;;;;;;5039523;28;20041;-70
2023/09/27 05:44:01;;;;;;;48.38;43.38;;;13.30;99.90;;;;;;5072038;28;20485;-70
2023/09/27 05:46:32;;;;;;;46.85;42.15;;;13.30;99.90;;;;;;5071615;28;20142;-70
2023/09/27 05:49:01;;;;;;;53.28;47.75;;;13.40;99.90;;;;;;5055500;28;20076;-70
2023/09/27 05:51:30;;;;;;;46.92;42.05;;;13.40;99.90;;;;;;5071797;28;20067;-70
2023/09/27 05:53:58;;;;;;;51.05;45.75;;;13.50;99.90;;;;;;5055531;28;20051;-70
2023/09/27 05:56:24;;;;;;;54.78;49.20;;;13.50;99.90;;;;;;5071946;28;20481;-70
2023/09/27 05:58:51;;;;;;;57.13;51.22;;;13.60;99.90;;;;;;5073926;28;20036;-70
2023/09/27 06:01:19;;;;;;;51.72;46.38;;;13.60;99.90;;;;;;5071809;28;20087;-69
2023/09/27 06:03:51;;;;;;;59.45;53.35;;;13.60;99.90;;;;;;5055332;28;20051;-65
2023/09/27 06:06:17;;;;;;;51.97;46.78;;;13.60;99.90;;;;;;5054218;28;20087;-66
2023/09/27 06:08:43;;;;;;;49.90;44.70;;;13.60;99.90;;;;;;5055373;28;20051;-64
2023/09/27 06:11:09;;;;;;;49.97;44.78;;;13.70;99.90;;;;;;5058256;28;20482;-65
2023/09/27 06:13:37;;;;;;;45.67;40.88;;;13.70;99.90;;;;;;5058458;28;20512;-65
2023/09/27 06:16:03;;;;;;;46.50;41.80;;;13.70;99.90;;;;;;5075082;28;20428;-65
2023/09/27 06:18:31;;;;;;;46.55;41.83;;;13.80;99.90;;;;;;5074818;28;20036;-64
2023/09/27 06:20:57;;;;;;;47.85;42.95;;;13.90;99.90;;;;;;5042062;28;20520;-65
2023/09/27 06:23:23;;;;;;;47.20;42.38;;;13.90;99.90;;;;;;5058292;28;20087;-65
2023/09/27 06:25:51;;;;;;;53.05;47.63;;;13.90;99.90;;;;;;5074573;28;20041;-66
2023/09/27 06:28:18;;;;;;;47.28;42.53;;;13.90;99.90;;;;;;5074616;28;20040;-64
2023/09/27 06:30:44;;;;;;;50.80;45.63;;;14.00;99.90;;;;;;5074838;28;20040;-66
2023/09/27 06:33:10;;;;;;;48.42;43.47;;;14.00;99.90;;;;;;5074435;28;20041;-64
2023/09/27 06:35:37;;;;;;;48.67;43.70;;;14.10;99.90;;;;;;5074739;28;20052;-64
2023/09/27 06:38:03;;;;;;;50.30;45.17;;;14.10;99.90;;;;;;5074347;28;20381;-65
2023/09/27 06:40:29;;;;;;;51.28;45.95;;;14.10;99.90;;;;;;5074314;28;20043;-66
2023/09/27 06:42:55;;;;;;;51.20;45.90;;;14.10;99.90;;;;;;5075875;28;20172;-65
2023/09/27 06:45:22;;;;;;;48.10;43.40;;;14.20;99.90;;;;;;5074231;28;20067;-65
2023/09/27 06:47:48;;;;;;;46.45;41.60;;;14.20;99.90;;;;;;5074162;28;20036;-65
2023/09/27 06:50:16;;;;;;;49.40;44.38;;;14.30;99.90;;;;;;5074077;28;20114;-65
2023/09/27 06:52:51;;;;;;;47.45;42.72;;;14.40;99.90;;;;;;5074452;28;20497;-65
2023/09/27 06:55:23;;;;;;;47.40;42.50;;;14.50;99.90;;;;;;5075355;28;20028;-66
2023/09/27 06:57:52;;;;;;;;;;;14.50;99.90;;;;;;5074830;28;20539;-64
2023/09/27 07:00:19;;;;;;;53.20;47.70;;;14.50;99.90;;;;;;5074002;28;19916;-65
2023/09/27 07:02:48;;;;;;;54.67;49.13;;;14.60;99.90;;;;;;5040724;28;20055;-65
2023/09/27 07:05:15;;;;;;;56.92;50.97;;;14.60;99.90;;;;;;5074118;28;20568;-65
2023/09/27 07:07:41;;;;;;;53.67;48.17;;;14.70;99.90;;;;;;5075107;28;20057;-65
2023/09/27 07:10:09;;;;;;;53.30;47.80;;;14.70;99.90;;;;;;5057352;28;20504;-66
2023/09/27 07:12:36;;;;;;;50.63;45.45;;;14.80;99.90;;;;;;5057407;28;20048;-66
2023/09/27 07:15:13;;;;;;;51.10;45.85;;;14.90;99.90;;;;;;5057613;28;20075;-68
2023/09/27 07:17:41;;;;;;;51.45;46.22;;;15.10;99.90;;;;;;5057362;28;20071;-71
2023/09/27 07:20:23;;;;;;;53.67;47.85;;;15.20;99.90;;;;;;5073605;28;20075;-70
2023/09/27 07:22:50;;;;;;;53.45;47.88;;;15.40;99.90;;;;;;5057383;28;20041;-70
2023/09/27 07:25:18;;;;;;;52.65;47.42;;;15.50;99.90;;;;;;5075130;28;20037;-70
2023/09/27 07:27:46;;;;;;;50.00;45.03;;;15.70;99.90;;;;;;5074058;28;20039;-69
2023/09/27 07:30:12;;;;;;;48.42;43.47;;;15.80;99.90;;;;;;5074104;28;20115;-69
2023/09/27 07:32:41;;;;;;;52.03;46.97;;;15.80;99.90;;;;;;5073468;28;20087;-70
2023/09/27 07:35:09;;;;;;;49.60;44.63;;;15.90;99.90;;;;;;5040785;28;20101;-70
2023/09/27 07:37:38;;;;;;;50.88;45.88;;;16.00;99.90;;;;;;5075107;28;20043;-70
2023/09/27 07:40:11;;;;;;;49.08;44.28;;;16.10;99.90;;;;;;5040931;28;20043;-71
2023/09/27 07:42:42;;;;;;;47.63;42.72;;;16.20;99.90;;;;;;5056646;28;20037;-70
2023/09/27 07:45:46;;;;;;;46.85;42.17;;;16.20;99.90;;;;;;5073429;28;20514;-70
2023/09/27 07:48:06;;;;;;;45.63;41.03;;;16.20;99.90;;;;;;5071210;28;20056;-69
2023/09/27 07:50:34;;;;;;;43.33;39.10;;;16.20;99.90;;;;;;5056699;28;20048;-70
2023/09/27 07:53:03;;;;;;;48.55;43.65;;;16.20;99.90;;;;;;5056902;28;20044;-69
2023/09/27 07:55:32;;;;;;;47.88;43.08;;;16.20;99.90;;;;;;5024170;28;20036;-70
2023/09/27 07:57:59;;;;;;;44.35;39.75;;;16.20;99.90;;;;;;5073336;28;20071;-69
2023/09/27 08:00:29;;;;;;;41.90;37.80;;;16.30;99.90;;;;;;5074177;28;20056;-71
2023/09/27 08:02:58;;;;;;;46.33;41.72;;;16.30;99.90;;;;;;5074156;28;20039;-71
2023/09/27 08:05:24;;;;;;;44.00;39.55;;;16.30;99.90;;;;;;5072738;28;20385;-70
2023/09/27 08:07:50;;;;;;;44.88;40.38;;;16.30;99.90;;;;;;5072607;28;20106;-70
2023/09/27 08:10:17;;;;;;;44.67;40.22;;;16.30;99.90;;;;;;5039953;28;20094;-70
2023/09/27 08:12:44;;;;;;;44.10;39.85;;;16.30;99.90;;;;;;5056012;28;20036;-70
2023/09/27 08:15:12;;;;;;;41.42;37.42;;;16.40;99.90;;;;;;5072591;28;20040;-70
2023/09/27 08:17:39;;;;;;;42.97;38.85;;;16.30;99.90;;;;;;5073089;28;20040;-70
2023/09/27 08:20:15;;;;;;;45.65;41.08;;;16.30;99.90;;;;;;5072660;28;20082;-70
2023/09/27 08:22:41;;;;;;;46.80;42.20;;;16.30;99.90;;;;;;5056153;28;20109;-69
2023/09/27 08:25:14;;;;;;;46.45;41.90;;;16.40;99.90;;;;;;5072618;28;20052;-70
2023/09/27 08:27:41;;;;;;;46.55;41.85;;;16.40;99.90;;;;;;5055775;28;20036;-70
2023/09/27 08:30:09;;;;;;;43.60;39.20;;;16.40;99.90;;;;;;5072410;28;20041;-70
2023/09/27 08:32:35;;;;;;;42.15;37.97;;;16.50;99.90;;;;;;5072009;28;20044;-70
2023/09/27 08:35:02;;;;;;;44.15;39.65;;;16.60;99.90;;;;;;5039335;28;20044;-71
2023/09/27 08:37:28;;;;;;;41.30;37.13;;;16.70;99.90;;;;;;5055843;28;20044;-70
2023/09/27 08:39:54;;;;;;;42.13;37.88;;;16.80;99.90;;;;;;5072464;28;20067;-71
2023/09/27 08:42:22;;;;;;;39.88;35.88;;;16.90;99.90;;;;;;5055969;28;20044;-71
2023/09/27 08:44:51;;;;;;;38.58;34.63;;;17.00;99.90;;;;;;5055535;28;20119;-71
2023/09/27 08:47:18;;;;;;;36.85;33.08;;;17.20;99.90;;;;;;5088872;28;20056;-70
2023/09/27 08:49:49;;;;;;;35.70;32.30;;;17.50;99.90;;;;;;5072323;28;20550;-70
2023/09/27 08:52:16;;;;;;;34.20;30.85;;;17.70;99.90;;;;;;5072348;28;20079;-70
2023/09/27 08:54:43;;;;;;;35.63;32.25;;;18.00;99.90;;;;;;5072489;28;20534;-70
2023/09/27 08:57:10;;;;;;;34.10;30.50;;;18.20;99.90;;;;;;5072212;28;20097;-71
2023/09/27 08:59:38;;;;;;;33.75;30.38;;;18.40;99.90;;;;;;5072167;28;20063;-70
2023/09/27 09:02:06;;;;;;;33.00;29.73;;;18.50;99.90;;;;;;5055568;28;20036;-70
2023/09/27 09:04:35;;;;;;;32.15;28.77;;;18.60;99.90;;;;;;5071983;28;20052;-70
2023/09/27 09:07:02;;;;;;;33.97;30.58;;;18.70;99.90;;;;;;5055463;28;20556;-70
2023/09/27 09:09:30;;;;;;;33.20;29.95;;;19.00;99.90;;;;;;5055305;28;20037;-70
2023/09/27 09:11:59;;;;;;;32.03;28.35;;;19.40;99.90;;;;;;5055563;28;20044;-70
2023/09/27 09:14:49;;;;;;;29.50;26.30;;;19.50;99.90;;;;;;5072355;28;20036;-69
2023/09/27 09:17:18;;;;;;;30.52;27.42;;;19.60;99.90;;;;;;5073049;28;20140;-69
2023/09/27 09:20:15;;;;;;;30.30;27.10;;;19.60;99.90;;;;;;5039492;28;20147;-70
2023/09/27 09:22:50;;;;;;;31.20;28.00;;;19.60;99.90;;;;;;5055158;28;20072;-70
2023/09/27 09:25:16;;;;;;;27.65;24.90;;;20.00;99.90;;;;;;5054898;28;20502;-70
2023/09/27 09:27:43;;;;;;;27.65;24.90;;;20.30;99.90;;;;;;5071853;28;20037;-70
2023/09/27 09:30:11;;;;;;;26.40;23.67;;;20.50;99.90;;;;;;5055456;28;20037;-70
2023/09/27 09:32:51;;;;;;;27.25;24.55;;;20.70;99.90;;;;;;5055708;28;20032;-70
2023/09/27 09:35:32;;;;;;;28.52;25.48;;;20.70;99.90;;;;;;5054969;28;20045;-66
2023/09/27 09:38:01;;;;;;;27.25;24.35;;;20.60;99.90;;;;;;5055168;28;20127;-67
2023/09/27 09:40:28;;;;;;;26.17;23.50;;;20.60;99.90;;;;;;5071755;28;20044;-66
2023/09/27 09:42:53;;;;;;;27.42;24.75;;;20.90;99.90;;;;;;5072753;28;20048;-67
2023/09/27 09:45:20;;;;;;;27.92;25.02;;;20.50;99.90;;;;;;5075689;28;20507;-66
2023/09/27 09:47:46;;;;;;;27.83;24.83;;;20.40;99.90;;;;;;5075300;28;20045;-67
2023/09/27 09:50:16;;;;;;;27.00;24.30;;;20.40;99.90;;;;;;5075729;28;20032;-66
2023/09/27 09:52:55;;;;;;;27.73;24.80;;;20.40;99.90;;;;;;5075568;28;20044;-68
2023/09/27 09:55:25;;;;;;;27.85;25.17;;;20.40;99.90;;;;;;5075214;28;20044;-67
2023/09/27 09:58:12;;;;;;;25.05;22.45;;;20.40;99.90;;;;;;5075452;28;20489;-65
2023/09/27 10:00:48;;;;;;;26.05;23.50;;;20.40;99.90;;;;;;5075120;28;20036;-65
2023/09/27 10:03:20;;;;;;;24.15;21.48;;;20.50;99.90;;;;;;5059226;28;20032;-65
2023/09/27 10:05:49;;;;;;;23.23;20.85;;;20.60;99.90;;;;;;5075409;28;20143;-67
2023/09/27 10:08:18;;;;;;;24.30;20.85;;;20.60;99.90;;;;;;5075284;28;20048;-67
2023/09/27 10:10:43;;;;;;;23.92;21.48;;;20.60;99.90;;;;;;5074918;28;20028;-65
2023/09/27 10:13:11;;;;;;;21.98;19.75;;;20.60;99.90;;;;;;5058660;28;20090;-65
2023/09/27 10:15:39;;;;;;;23.05;20.65;;;20.70;99.90;;;;;;5058870;28;20489;-65
2023/09/27 10:18:40;;;;;;;21.90;19.70;;;20.90;99.90;;;;;;5058532;28;20381;-65
2023/09/27 10:21:08;;;;;;;20.88;18.67;;;21.10;99.90;;;;;;5074778;28;20048;-65
2023/09/27 10:23:58;;;;;;;19.30;16.70;;;21.40;99.90;;;;;;5074980;28;20033;-65
2023/09/27 10:26:26;;;;;;;18.08;15.50;;;21.70;99.90;;;;;;5074758;28;20123;-66
2023/09/27 10:29:08;;;;;;;18.92;16.48;;;21.90;99.90;;;;;;5074796;28;20040;-67
2023/09/27 10:31:40;;;;;;;19.60;17.08;;;21.80;99.90;;;;;;5058153;28;20044;-66
2023/09/27 10:34:30;;;;;;;20.75;16.60;;;21.70;99.90;;;;;;5074851;28;20048;-67
2023/09/27 10:37:00;;;;;;;18.85;15.98;;;21.60;99.90;;;;;;5075702;28;20053;-68
2023/09/27 10:39:26;;;;;;;19.33;16.65;;;21.50;99.90;;;;;;5057999;28;20178;-66
2023/09/27 10:41:53;;;;;;;22.45;17.17;;;21.50;99.90;;;;;;5074422;28;20072;-65
2023/09/27 10:44:30;;;;;;;20.48;17.08;;;21.50;99.90;;;;;;5041524;28;20047;-71
2023/09/27 10:46:57;;;;;;;20.73;17.48;;;21.50;99.90;;;;;;5076115;28;20036;-70
2023/09/27 10:49:30;;;;;;;19.83;17.63;;;21.50;99.90;;;;;;5074856;28;20079;-68
2023/09/27 10:51:56;;;;;;;19.73;17.33;;;21.50;99.90;;;;;;5074723;28;20429;-69
2023/09/27 10:54:23;;;;;;;20.67;16.92;;;21.50;99.90;;;;;;5057702;28;20047;-70
2023/09/27 10:56:53;;;;;;;20.42;16.83;;;21.60;99.90;;;;;;5058433;28;20080;-70
2023/09/27 10:59:26;;;;;;;20.10;17.48;;;21.70;99.90;;;;;;5091557;28;20403;-70
2023/09/27 11:01:53;;;;;;;19.17;16.25;;;21.70;99.90;;;;;;5074445;28;20044;-70
2023/09/27 11:04:23;;;;;;;19.83;16.98;;;21.70;99.90;;;;;;5074439;28;20074;-69
2023/09/27 11:06:50;;;;;;;20.17;17.80;;;21.90;99.90;;;;;;5074507;28;20087;-70
2023/09/27 11:09:19;;;;;;;20.25;17.88;;;22.00;99.90;;;;;;5074488;28;20059;-72
2023/09/27 11:11:50;;;;;;;20.48;17.83;;;22.20;99.90;;;;;;5074570;28;20258;-71
2023/09/27 11:14:33;;;;;;;19.13;17.08;;;22.30;99.90;;;;;;5074300;28;20076;-70
2023/09/27 11:17:22;;;;;;;18.05;16.17;;;22.40;99.90;;;;;;5058039;28;20076;-71
2023/09/27 11:19:52;;;;;;;17.92;16.02;;;22.50;99.90;;;;;;5074879;28;20040;-69
2023/09/27 11:22:29;;;;;;;19.27;16.63;;;22.50;99.90;;;;;;5057789;28;20040;-71
2023/09/27 11:24:55;;;;;;;16.35;13.73;;;22.50;99.90;;;;;;5074697;28;20044;-70
2023/09/27 11:27:22;;;;;;;17.70;13.90;;;22.60;99.90;;;;;;5057451;28;20044;-70
2023/09/27 11:29:54;;;;;;;15.75;14.05;;;22.50;99.90;;;;;;5074029;28;20045;-70
2023/09/27 11:32:20;;;;;;;17.27;13.80;;;22.40;99.90;;;;;;5041068;28;20033;-72
2023/09/27 11:34:56;;;;;;;16.00;14.30;;;22.30;99.90;;;;;;5075159;28;20040;-72
2023/09/27 11:37:23;;;;;;;15.80;14.10;;;22.30;99.90;;;;;;5075226;28;20063;-70
2023/09/27 11:39:51;;;;;;;19.13;15.20;;;22.30;99.90;;;;;;5074136;28;20048;-71
2023/09/27 11:42:25;;;;;;;18.23;15.98;;;22.30;99.90;;;;;;5057796;28;20040;-70
2023/09/27 11:45:08;;;;;;;18.70;16.75;;;22.30;99.90;;;;;;5040862;28;20048;-70
2023/09/27 11:47:50;;;;;;;17.67;15.27;;;22.20;99.90;;;;;;5073827;28;20044;-70
2023/09/27 11:50:18;;;;;;;18.80;16.80;;;22.20;99.90;;;;;;5073806;28;20048;-70
2023/09/27 11:52:46;;;;;;;18.08;15.88;;;22.10;99.90;;;;;;5073525;28;20044;-70
2023/09/27 11:55:13;;;;;;;18.70;16.70;;;22.10;99.90;;;;;;5074006;28;20037;-65
2023/09/27 11:57:42;;;;;;;18.48;16.58;;;22.30;99.90;;;;;;5074177;28;20510;-66
2023/09/27 12:00:13;;;;;;;17.77;15.88;;;22.40;99.90;;;;;;5056585;28;20497;-67
2023/09/27 12:02:39;;;;;;;18.52;16.45;;;22.50;99.90;;;;;;5056205;28;20051;-66
2023/09/27 12:05:05;;;;;;;16.98;13.15;;;22.40;99.90;;;;;;5056254;28;20044;-66
2023/09/27 12:07:32;;;;;;;19.73;16.10;;;22.40;99.90;;;;;;5038516;28;20092;-66
2023/09/27 12:09:58;;;;;;;18.50;16.58;;;22.20;99.90;;;;;;5072908;28;20578;-65
2023/09/27 12:12:27;;;;;;;17.30;15.15;;;22.20;99.90;;;;;;5072894;28;20485;-66
2023/09/27 12:15:01;;;;;;;18.90;16.10;;;22.20;99.90;;;;;;5041301;28;20037;-66
2023/09/27 12:17:27;;;;;;;15.80;13.48;;;22.10;99.90;;;;;;5055940;28;20123;-66
2023/09/27 12:19:53;;;;;;;16.50;13.52;;;22.10;99.90;;;;;;5072467;28;20074;-66
2023/09/27 12:22:20;;;;;;;15.57;13.32;;;22.10;99.90;;;;;;5039735;28;20046;-65
2023/09/27 12:24:47;;;;;;;16.63;14.05;;;22.10;99.90;;;;;;5056015;28;20098;-66
2023/09/27 12:27:13;;;;;;;15.85;12.90;;;22.10;99.90;;;;;;5039251;28;20045;-65
2023/09/27 12:29:39;;;;;;;15.05;12.73;;;22.10;99.90;;;;;;5055926;28;20032;-65
2023/09/27 12:32:05;;;;;;;15.50;12.88;;;22.10;99.90;;;;;;5055982;28;20055;-65
2023/09/27 12:34:31;;;;;;;14.30;11.80;;;22.20;99.90;;;;;;5072467;28;20032;-65